createdAt,value
2019-03-17T00:02:13.831Z,55.70
2019-03-17T00:04:47.125Z,62.03
2019-03-17T00:07:23.561Z,58.07
2019-03-17T00:09:56.932Z,63.13
2019-03-17T00:12:31.451Z,66.53
2019-03-17T00:15:06.552Z,65.40
2019-03-17T00:17:41.823Z,67.67
2019-03-17T00:20:14.959Z,65.27
2019-03-17T00:22:48.378Z,71.27
2019-03-17T00:28:13.264Z,70.63
2019-03-17T00:30:46.546Z,69.90
2019-03-17T00:33:19.835Z,67.63
2019-03-17T00:35:53.115Z,71.37
2019-03-17T00:38:26.396Z,71.47
2019-03-17T00:41:21.860Z,75.03
2019-03-17T00:43:55.204Z,78.23
2019-03-17T00:46:28.570Z,74.87
2019-03-17T00:49:02.876Z,74.83
2019-03-17T00:51:36.282Z,75.83
2019-03-17T00:54:09.571Z,81.73
2019-03-17T00:56:42.826Z,80.47
2019-03-17T00:59:16.239Z,77.37
2019-03-17T01:01:49.642Z,78.57
2019-03-17T01:04:23.867Z,71.97
2019-03-17T01:06:57.199Z,74.77
2019-03-17T01:09:30.685Z,79.50
2019-03-17T01:12:04.323Z,87.17
2019-03-17T01:14:37.727Z,83.90
2019-03-17T01:17:10.984Z,83.47
2019-03-17T01:19:44.265Z,87.03
2019-03-17T01:22:17.573Z,84.93
2019-03-17T01:24:50.822Z,84.33
2019-03-17T01:27:24.070Z,80.87
2019-03-17T01:29:57.682Z,81.27
2019-03-17T01:32:30.913Z,79.90
2019-03-17T01:35:09.502Z,84.23
2019-03-17T01:37:42.265Z,77.03
2019-03-17T01:40:16.553Z,75.73
2019-03-17T01:42:49.947Z,77.93
2019-03-17T01:45:24.495Z,74.70
2019-03-17T01:47:57.901Z,75.97
2019-03-17T01:50:31.346Z,90.53
2019-03-17T01:53:04.633Z,75.57
2019-03-17T01:55:37.938Z,88.53
2019-03-17T01:58:11.269Z,85.23
2019-03-17T02:00:45.092Z,74.43
2019-03-17T02:03:18.373Z,80.20
2019-03-17T02:05:51.717Z,74.40
2019-03-17T02:08:25.017Z,75.00
2019-03-17T02:10:58.372Z,81.33
2019-03-17T02:13:31.716Z,75.95
2019-03-17T02:16:05.036Z,77.97
2019-03-17T02:18:38.294Z,75.87
2019-03-17T03:33:28.788Z,70.70
2019-03-17T03:36:10.850Z,68.73
2019-03-17T03:38:37.065Z,66.60
2019-03-17T03:41:10.407Z,61.57
2019-03-17T03:43:43.693Z,63.67
2019-03-17T03:46:17.048Z,60.17
2019-03-17T03:48:50.445Z,64.97
2019-03-17T03:51:24.985Z,59.00
2019-03-17T03:53:58.345Z,55.63
2019-03-17T03:56:32.603Z,60.60
2019-03-17T03:59:05.951Z,57.30
2019-03-17T04:01:39.194Z,59.63
2019-03-17T04:04:13.437Z,53.67
2019-03-17T04:06:46.679Z,54.18
2019-03-17T04:09:20.009Z,55.10
2019-03-17T04:11:53.343Z,62.73
2019-03-17T04:14:26.645Z,65.55
2019-03-17T04:16:59.889Z,69.80
2019-03-17T04:19:33.203Z,67.93
2019-03-17T04:22:06.551Z,78.17
2019-03-17T04:24:40.054Z,72.27
2019-03-17T04:27:13.417Z,71.77
2019-03-17T04:29:46.696Z,74.87
2019-03-17T04:32:20.047Z,72.15
2019-03-17T04:34:53.488Z,67.58
2019-03-17T04:37:26.676Z,62.83
2019-03-17T04:40:00.613Z,62.73
2019-03-17T04:42:33.973Z,68.52
2019-03-17T04:45:08.665Z,64.30
2019-03-17T04:47:42.025Z,65.40
2019-03-17T04:50:15.470Z,65.83
2019-03-17T04:52:50.016Z,64.10
2019-03-17T04:55:23.302Z,72.50
2019-03-17T04:57:56.620Z,66.00
2019-03-17T05:22:25.244Z,60.85
2019-03-17T05:24:58.611Z,69.40
2019-03-17T05:27:31.902Z,59.10
2019-03-17T05:30:07.961Z,60.30
2019-03-17T05:32:41.256Z,57.87
2019-03-17T05:35:14.533Z,62.60
2019-03-17T05:37:48.612Z,58.25
2019-03-17T05:40:21.860Z,57.90
2019-03-17T05:46:20.962Z,51.28
2019-03-17T05:48:54.353Z,51.75
2019-03-17T05:51:29.122Z,50.90
2019-03-17T05:54:02.404Z,45.65
2019-03-17T05:56:42.319Z,51.13
2019-03-17T05:59:11.811Z,47.78
2019-03-17T06:01:45.011Z,48.38
2019-03-17T06:04:18.321Z,46.08
2019-03-17T06:06:51.551Z,45.00
2019-03-17T06:09:26.735Z,40.98
2019-03-17T06:12:07.721Z,46.88
2019-03-17T06:14:41.005Z,40.98
2019-03-17T06:17:14.273Z,37.05
2019-03-17T06:19:49.025Z,41.55
2019-03-17T06:22:22.376Z,40.40
2019-03-17T06:24:55.671Z,38.40
2019-03-17T06:27:33.941Z,36.15
2019-03-17T06:30:13.839Z,38.85
2019-03-17T06:32:48.022Z,31.82
2019-03-17T06:35:21.465Z,39.38
2019-03-17T06:44:44.761Z,30.95
2019-03-17T06:47:18.162Z,33.35
2019-03-17T06:49:53.285Z,30.27
2019-03-17T06:55:36.381Z,31.20
2019-03-17T06:58:15.343Z,31.68
2019-03-17T07:00:47.092Z,32.23
2019-03-17T07:03:21.532Z,33.60
2019-03-17T07:19:31.338Z,30.62
2019-03-17T07:22:04.695Z,21.12
2019-03-17T07:24:43.303Z,25.85
2019-03-17T07:27:18.264Z,20.82
2019-03-17T07:29:51.618Z,24.67
2019-03-17T07:36:02.387Z,16.30
2019-03-17T07:38:35.731Z,15.98
2019-03-17T07:41:09.064Z,13.90
2019-03-17T07:43:42.423Z,17.57
2019-03-17T07:46:16.657Z,16.75
2019-03-17T07:48:50.715Z,13.65
2019-03-17T07:51:24.074Z,17.90
2019-03-17T07:53:57.422Z,13.03
2019-03-17T07:59:21.131Z,11.73
2019-03-17T08:01:57.232Z,12.45
2019-03-17T08:04:41.962Z,12.88
2019-03-17T08:07:06.983Z,10.60
2019-03-17T08:09:51.153Z,15.10
2019-03-17T08:12:24.476Z,13.08
2019-03-17T08:14:58.006Z,14.60
2019-03-17T08:17:31.284Z,14.38
2019-03-17T08:20:04.976Z,13.83
2019-03-17T08:22:38.375Z,12.88
2019-03-17T08:25:13.844Z,10.13
2019-03-17T08:27:47.151Z,10.30
2019-03-17T08:30:20.522Z,8.23
2019-03-17T08:32:53.871Z,9.03
2019-03-17T08:35:27.126Z,9.20
2019-03-17T08:38:00.415Z,10.35
2019-03-17T08:40:33.705Z,6.17
2019-03-17T08:43:06.945Z,6.78
2019-03-17T08:45:45.873Z,8.88
2019-03-17T08:48:19.271Z,5.75
2019-03-17T08:50:52.564Z,7.05
2019-03-17T08:53:25.912Z,7.90
2019-03-17T08:55:59.214Z,6.72
2019-03-17T08:58:32.521Z,11.60
2019-03-17T09:01:09.853Z,10.75
2019-03-17T09:03:43.290Z,4.78
2019-03-17T09:06:16.664Z,9.43
2019-03-17T09:08:51.671Z,8.55
2019-03-17T09:11:25.076Z,4.60
2019-03-17T09:13:59.296Z,5.58
2019-03-17T09:16:32.543Z,9.28
2019-03-17T09:19:12.303Z,8.83
2019-03-17T09:21:41.013Z,9.33
2019-03-17T09:24:17.383Z,8.45
2019-03-17T09:26:49.411Z,8.73
2019-03-17T09:29:22.717Z,8.98
2019-03-17T09:31:56.163Z,4.97
2019-03-17T09:34:29.574Z,7.83
2019-03-17T09:37:02.935Z,8.83
2019-03-17T09:39:37.334Z,8.15
2019-03-17T09:42:11.220Z,8.23
2019-03-17T09:44:44.686Z,10.40
2019-03-17T09:47:17.948Z,8.55
2019-03-17T09:49:51.345Z,6.75
2019-03-17T09:52:25.211Z,5.78
2019-03-17T09:55:01.375Z,8.98
2019-03-17T09:57:34.631Z,8.90
2019-03-17T10:00:18.225Z,6.47
2019-03-17T10:02:52.748Z,10.53
2019-03-17T10:05:27.724Z,7.37
2019-03-17T10:08:01.125Z,6.33
2019-03-17T10:10:34.540Z,9.20
2019-03-17T10:13:08.055Z,7.40
2019-03-17T10:15:41.455Z,7.92
2019-03-17T10:18:14.819Z,7.92
2019-03-17T10:20:48.239Z,9.38
2019-03-17T10:23:23.221Z,6.72
2019-03-17T10:25:57.855Z,7.75
2019-03-17T10:28:34.892Z,7.05
2019-03-17T10:31:06.855Z,9.80
2019-03-17T10:33:40.133Z,7.70
2019-03-17T10:36:13.416Z,10.82
2019-03-17T10:38:46.912Z,8.95
2019-03-17T10:41:21.740Z,8.00
2019-03-17T10:43:55.104Z,7.37
2019-03-17T10:46:28.482Z,10.50
2019-03-17T10:49:03.457Z,6.87
2019-03-17T10:51:36.885Z,7.65
2019-03-17T10:54:14.788Z,7.47
2019-03-17T10:56:48.080Z,7.37
2019-03-17T10:59:23.437Z,8.50
2019-03-17T11:01:56.793Z,10.08
2019-03-17T11:04:30.083Z,5.15
2019-03-17T11:07:04.480Z,7.12
2019-03-17T11:09:37.835Z,7.47
2019-03-17T11:12:11.091Z,5.45
2019-03-17T11:14:44.416Z,7.83
2019-03-17T11:17:17.686Z,3.80
2019-03-17T11:19:51.009Z,6.25
2019-03-17T11:22:24.308Z,8.85
2019-03-17T11:24:57.653Z,7.35
2019-03-17T11:27:31.083Z,6.67
2019-03-17T11:30:15.225Z,6.83
2019-03-17T11:32:48.557Z,5.60
2019-03-17T11:35:21.833Z,8.38
2019-03-17T11:37:55.155Z,5.67
2019-03-17T11:40:30.620Z,6.17
2019-03-17T11:43:11.962Z,5.17
2019-03-17T11:45:39.857Z,4.33
2019-03-17T11:48:21.236Z,3.55
2019-03-17T11:50:57.222Z,7.75
2019-03-17T11:56:15.263Z,5.95
2019-03-17T12:01:52.200Z,6.33
2019-03-17T12:04:26.791Z,8.83
2019-03-17T12:07:00.131Z,6.37
2019-03-17T12:09:33.525Z,7.53
2019-03-17T12:12:08.652Z,4.42
2019-03-17T12:14:46.013Z,7.45
2019-03-17T12:17:19.262Z,6.35
2019-03-17T12:19:52.654Z,5.00
2019-03-17T12:22:25.974Z,5.75
2019-03-17T12:24:59.361Z,5.87
2019-03-17T12:27:32.646Z,4.08
2019-03-17T12:30:15.563Z,4.40
2019-03-17T12:32:49.626Z,4.67
2019-03-17T12:35:23.092Z,4.92
2019-03-17T12:37:56.436Z,5.40
2019-03-17T12:40:30.986Z,5.67
2019-03-17T12:43:04.294Z,5.47
2019-03-17T12:45:37.574Z,7.08
2019-03-17T12:48:10.999Z,4.42
2019-03-17T12:50:44.388Z,4.72
2019-03-17T12:53:17.692Z,4.62
2019-03-17T12:55:50.978Z,5.95
2019-03-17T12:58:24.285Z,3.55
2019-03-17T13:00:57.689Z,2.90
2019-03-17T13:03:31.005Z,4.03
2019-03-17T13:06:04.691Z,4.05
2019-03-17T13:08:38.012Z,4.15
2019-03-17T13:11:11.325Z,3.27
2019-03-17T13:13:47.139Z,4.20
2019-03-17T13:16:21.116Z,4.60
2019-03-17T13:18:54.432Z,4.08
2019-03-17T13:21:27.853Z,3.45
2019-03-17T13:24:01.105Z,7.22
2019-03-17T13:26:34.556Z,3.37
2019-03-17T13:29:07.911Z,4.08
2019-03-17T13:31:41.178Z,3.52
2019-03-17T13:34:14.561Z,6.97
2019-03-17T13:36:47.964Z,4.80
2019-03-17T13:39:21.334Z,4.87
2019-03-17T13:41:54.709Z,5.12
2019-03-17T13:44:27.991Z,4.60
2019-03-17T13:47:01.407Z,6.50
2019-03-17T13:49:34.633Z,5.05
2019-03-17T13:52:09.245Z,3.27
2019-03-17T13:54:43.482Z,5.30
2019-03-17T13:57:16.706Z,3.22
2019-03-17T13:59:51.658Z,3.83
2019-03-17T14:02:25.064Z,6.28
2019-03-17T14:04:58.355Z,3.85
2019-03-17T14:07:33.271Z,5.53
2019-03-17T14:10:13.967Z,6.03
2019-03-17T14:12:47.465Z,9.78
2019-03-17T14:15:20.842Z,3.40
2019-03-17T14:17:54.115Z,6.05
2019-03-17T14:20:27.394Z,5.65
2019-03-17T14:23:00.641Z,3.70
2019-03-17T14:25:37.249Z,4.20
2019-03-17T14:28:10.502Z,4.15
2019-03-17T14:30:43.787Z,4.05
2019-03-17T14:33:17.165Z,3.33
2019-03-17T14:35:50.483Z,4.42
2019-03-17T14:38:23.851Z,12.70
2019-03-17T14:40:57.434Z,5.35
2019-03-17T14:43:30.868Z,3.55
2019-03-17T14:46:04.192Z,4.30
2019-03-17T14:48:37.433Z,4.92
2019-03-17T14:51:12.184Z,4.87
2019-03-17T14:53:45.511Z,4.40
2019-03-17T14:56:18.747Z,3.95
2019-03-17T14:58:52.094Z,6.90
2019-03-17T15:01:25.344Z,3.83
2019-03-17T15:04:01.422Z,5.42
2019-03-17T15:06:34.793Z,4.35
2019-03-17T15:09:08.849Z,3.27
2019-03-17T15:11:44.411Z,3.33
2019-03-17T15:14:17.722Z,5.97
2019-03-17T15:16:51.131Z,4.75
2019-03-17T15:19:27.460Z,3.30
2019-03-17T15:22:00.687Z,3.20
2019-03-17T15:24:34.995Z,3.47
2019-03-17T15:27:08.476Z,4.47
2019-03-17T15:29:43.103Z,4.55
2019-03-17T15:32:16.482Z,4.58
2019-03-17T15:34:51.083Z,4.85
2019-03-17T15:37:24.361Z,5.95
2019-03-17T15:39:59.151Z,3.10
2019-03-17T15:42:32.483Z,6.75
2019-03-17T15:45:09.653Z,5.30
2019-03-17T15:47:44.040Z,4.12
2019-03-17T15:50:22.535Z,3.47
2019-03-17T15:52:55.818Z,3.90
2019-03-17T15:55:29.180Z,3.65
2019-03-17T15:58:03.709Z,4.20
2019-03-17T16:00:37.079Z,3.90
2019-03-17T16:03:10.419Z,4.10
2019-03-17T16:05:45.674Z,3.30
2019-03-17T16:08:19.225Z,5.40
2019-03-17T16:10:52.556Z,5.70
2019-03-17T16:13:27.357Z,6.17
2019-03-17T16:16:00.753Z,5.65
2019-03-17T16:18:34.110Z,6.10
2019-03-17T16:21:09.057Z,5.85
2019-03-17T16:23:42.439Z,6.62
2019-03-17T16:26:15.856Z,8.03
2019-03-17T16:28:49.208Z,5.12
2019-03-17T16:31:22.534Z,5.75
2019-03-17T16:33:56.824Z,6.75
2019-03-17T16:36:30.210Z,6.67
2019-03-17T16:39:04.275Z,5.92
2019-03-17T16:41:43.270Z,9.98
2019-03-17T16:44:12.551Z,6.78
2019-03-17T16:46:45.802Z,5.50
2019-03-17T16:49:19.004Z,6.92
2019-03-17T16:51:52.324Z,5.58
2019-03-17T16:54:25.668Z,9.48
2019-03-17T16:56:59.060Z,5.97
2019-03-17T16:59:32.497Z,9.30
2019-03-17T17:02:05.869Z,8.90
2019-03-17T17:04:39.243Z,9.88
2019-03-17T17:07:12.556Z,8.28
2019-03-17T17:09:45.803Z,7.37
2019-03-17T17:12:19.114Z,6.55
2019-03-17T17:14:52.467Z,9.03
2019-03-17T17:17:25.789Z,17.20
2019-03-17T17:19:59.167Z,28.60
2019-03-17T17:22:32.604Z,21.25
2019-03-17T17:25:08.910Z,11.85
2019-03-17T17:27:42.264Z,8.95
2019-03-17T17:30:20.249Z,11.85
2019-03-17T17:32:53.604Z,11.08
2019-03-17T17:35:28.029Z,9.48
2019-03-17T17:38:01.486Z,10.15
2019-03-17T17:40:34.810Z,9.88
2019-03-17T17:43:08.072Z,15.43
2019-03-17T17:45:41.359Z,10.32
2019-03-17T17:48:14.907Z,15.88
2019-03-17T17:50:48.271Z,13.50
2019-03-17T17:53:21.612Z,14.13
2019-03-17T17:55:54.994Z,12.70
2019-03-17T17:58:28.467Z,14.40
2019-03-17T18:01:01.829Z,10.88
2019-03-17T18:03:35.244Z,16.00
2019-03-17T18:06:10.074Z,12.53
2019-03-17T18:08:43.499Z,14.75
2019-03-17T18:11:16.894Z,13.00
2019-03-17T18:13:50.307Z,12.03
2019-03-17T18:16:23.703Z,14.58
2019-03-17T18:18:57.033Z,11.93
2019-03-17T18:21:30.356Z,13.35
2019-03-17T18:24:08.133Z,14.80
2019-03-17T18:26:41.536Z,11.88
2019-03-17T18:29:14.879Z,12.13
2019-03-17T18:31:48.258Z,17.92
2019-03-17T18:34:21.580Z,15.90
2019-03-17T18:36:54.925Z,13.38
2019-03-17T18:39:28.375Z,13.75
2019-03-17T18:42:01.785Z,14.33
2019-03-17T18:44:35.230Z,14.95
2019-03-17T18:47:08.622Z,14.47
2019-03-17T18:49:41.970Z,24.35
2019-03-17T18:52:15.377Z,31.35
2019-03-17T18:54:49.219Z,26.05
2019-03-17T18:57:24.823Z,36.80
2019-03-17T19:00:04.428Z,27.75
2019-03-17T19:02:37.762Z,17.35
2019-03-17T19:05:19.588Z,16.05
2019-03-17T19:07:51.995Z,15.60
2019-03-17T19:10:25.315Z,15.70
2019-03-17T19:12:59.874Z,16.20
2019-03-17T19:15:33.323Z,16.95
2019-03-17T19:18:06.694Z,12.60
2019-03-17T19:20:40.112Z,13.88
2019-03-17T19:23:16.241Z,17.25
2019-03-17T19:25:49.632Z,17.55
2019-03-17T19:28:23.185Z,14.38
2019-03-17T19:30:57.632Z,13.20
2019-03-17T19:33:31.033Z,18.45
2019-03-17T19:36:04.581Z,14.83
2019-03-17T19:38:38.045Z,16.23
2019-03-17T19:41:11.368Z,20.40
2019-03-17T19:43:47.501Z,18.87
2019-03-17T19:46:20.913Z,36.73
2019-03-17T19:48:54.331Z,31.57
2019-03-17T19:51:27.670Z,43.50
2019-03-17T19:54:02.470Z,55.60
2019-03-17T19:56:35.921Z,90.97
2019-03-17T19:59:11.635Z,99.22
2019-03-17T20:01:46.804Z,118.22
2019-03-17T20:04:30.010Z,185.90
2019-03-17T20:06:56.308Z,111.35
2019-03-17T20:09:29.698Z,73.55
2019-03-17T20:12:03.107Z,70.92
2019-03-17T20:14:37.930Z,60.43
2019-03-17T20:17:11.315Z,62.23
2019-03-17T20:19:44.691Z,55.58
2019-03-17T20:22:18.013Z,52.67
2019-03-17T20:24:51.420Z,56.58
2019-03-17T20:27:30.691Z,55.75
2019-03-17T20:30:02.769Z,82.67
2019-03-17T20:32:37.157Z,53.50
2019-03-17T20:35:13.554Z,59.85
2019-03-17T20:37:48.125Z,78.70
2019-03-17T20:40:21.553Z,62.20
2019-03-17T20:42:54.866Z,55.60
2019-03-17T20:45:28.449Z,64.03
2019-03-17T20:48:01.933Z,60.28
2019-03-17T20:50:35.283Z,130.82
2019-03-17T20:53:08.676Z,209.10
2019-03-17T20:55:42.213Z,141.15
2019-03-17T20:58:15.613Z,185.00
2019-03-17T21:00:49.575Z,184.15
2019-03-17T21:03:22.945Z,145.95
2019-03-17T21:05:56.811Z,125.87
2019-03-17T21:08:30.223Z,129.10
2019-03-17T21:11:03.615Z,177.50
2019-03-17T21:13:46.680Z,128.95
2019-03-17T21:16:13.191Z,110.48
2019-03-17T21:18:47.484Z,122.07
2019-03-17T21:21:22.341Z,121.37
2019-03-17T21:23:55.787Z,70.20
2019-03-17T21:26:32.156Z,65.87
2019-03-17T21:29:05.576Z,144.07
2019-03-17T21:31:38.953Z,325.45
2019-03-17T21:34:15.154Z,357.55
2019-03-17T21:36:52.176Z,182.07
2019-03-17T21:39:25.603Z,176.60
2019-03-17T21:41:59.333Z,155.40
2019-03-17T21:44:32.726Z,83.37
2019-03-17T21:47:06.184Z,100.67
2019-03-17T21:49:41.093Z,70.65
2019-03-17T21:52:16.335Z,71.20
2019-03-17T21:54:55.743Z,73.83
2019-03-17T21:57:34.043Z,61.88
2019-03-17T22:00:14.153Z,48.87
2019-03-17T22:02:47.567Z,45.73
2019-03-17T22:05:20.991Z,48.45
2019-03-17T22:08:00.473Z,97.78
2019-03-17T22:10:39.937Z,133.72
2019-03-17T22:13:14.463Z,92.40
2019-03-17T22:15:50.845Z,122.80
2019-03-17T22:18:25.033Z,81.97
2019-03-17T22:20:58.462Z,118.70
2019-03-17T22:23:31.835Z,43.87
2019-03-17T22:26:06.052Z,46.08
2019-03-17T22:28:39.297Z,55.80
2019-03-17T22:31:14.176Z,102.30
2019-03-17T22:33:47.536Z,45.48
2019-03-17T22:36:28.112Z,59.27
2019-03-17T22:39:01.565Z,88.07
2019-03-17T22:41:34.944Z,58.20
2019-03-17T22:44:09.510Z,37.93
2019-03-17T22:50:06.535Z,37.38
2019-03-17T22:56:40.873Z,35.65
2019-03-17T23:02:03.495Z,31.90
2019-03-17T23:04:40.367Z,32.63
2019-03-17T23:07:18.630Z,34.90
2019-03-17T23:09:52.053Z,34.78
2019-03-17T23:12:31.854Z,34.05
2019-03-17T23:15:07.363Z,40.65
2019-03-17T23:17:40.569Z,45.15
2019-03-17T23:20:17.573Z,38.65
2019-03-17T23:29:28.437Z,31.93
2019-03-17T23:32:03.950Z,33.92
2019-03-17T23:34:37.326Z,19.87
2019-03-17T23:37:11.883Z,21.70
2019-03-17T23:39:53.474Z,20.97
2019-03-17T23:42:28.385Z,16.00
2019-03-17T23:45:01.605Z,14.80
2019-03-17T23:47:35.095Z,18.40
2019-03-17T23:50:15.947Z,16.05
2019-03-17T23:52:49.289Z,10.65
2019-03-17T23:55:24.148Z,11.33
2019-03-17T23:57:57.423Z,9.50
